createdAt,value
2019-02-16T00:01:04.395Z,8.54
2019-02-16T00:03:33.965Z,8.48
2019-02-16T00:06:03.660Z,8.28
2019-02-16T00:08:33.192Z,8.43
2019-02-16T00:11:03.297Z,8.36
2019-02-16T00:13:32.888Z,8.30
2019-02-16T00:16:02.606Z,8.37
2019-02-16T00:18:32.193Z,8.36
2019-02-16T00:21:03.909Z,8.18
2019-02-16T00:23:32.956Z,8.02
2019-02-16T00:26:02.573Z,8.32
2019-02-16T00:28:32.067Z,8.13
2019-02-16T00:31:01.631Z,8.14
2019-02-16T00:33:34.179Z,8.01
2019-02-16T00:36:03.711Z,8.15
2019-02-16T00:38:33.241Z,8.06
2019-02-16T00:41:02.797Z,8.14
2019-02-16T00:43:32.373Z,8.05
2019-02-16T00:46:01.991Z,8.15
2019-02-16T00:48:31.567Z,8.10
2019-02-16T00:51:01.149Z,8.08
2019-02-16T00:53:30.710Z,8.02
2019-02-16T00:56:00.379Z,8.06
2019-02-16T00:58:29.893Z,8.10
2019-02-16T01:00:59.444Z,7.96
2019-02-16T01:03:29.089Z,7.89
2019-02-16T01:05:58.631Z,7.83
2019-02-16T01:08:28.198Z,7.97
2019-02-16T01:10:57.854Z,8.05
2019-02-16T01:13:27.417Z,8.07
2019-02-16T01:15:56.954Z,8.19
2019-02-16T01:18:27.080Z,8.15
2019-02-16T01:20:56.742Z,8.20
2019-02-16T01:23:26.251Z,8.10
2019-02-16T01:25:55.845Z,8.14
2019-02-16T01:28:25.336Z,8.09
2019-02-16T01:30:54.967Z,8.08
2019-02-16T01:33:24.600Z,8.04
2019-02-16T01:35:54.118Z,7.98
2019-02-16T01:38:23.911Z,7.77
2019-02-16T01:40:53.857Z,7.93
2019-02-16T01:43:23.734Z,7.80
2019-02-16T01:45:53.408Z,7.74
2019-02-16T01:48:22.925Z,7.56
2019-02-16T01:50:52.505Z,7.41
2019-02-16T01:53:22.046Z,7.35
2019-02-16T01:55:51.599Z,7.40
2019-02-16T01:58:21.320Z,7.26
2019-02-16T02:00:51.278Z,7.22
2019-02-16T02:03:20.898Z,7.17
2019-02-16T02:05:50.432Z,7.16
2019-02-16T02:08:20.280Z,7.37
2019-02-16T02:10:50.113Z,7.39
2019-02-16T02:13:20.142Z,7.15
2019-02-16T02:15:49.684Z,6.99
2019-02-16T02:18:19.253Z,7.06
2019-02-16T02:20:48.792Z,7.12
2019-02-16T02:23:18.338Z,7.32
2019-02-16T02:25:48.110Z,7.39
2019-02-16T02:28:17.654Z,7.37
2019-02-16T02:30:47.373Z,7.50
2019-02-16T02:33:16.942Z,7.31
2019-02-16T02:35:46.473Z,7.05
2019-02-16T02:38:16.222Z,6.92
2019-02-16T02:40:45.781Z,6.77
2019-02-16T02:43:15.386Z,6.93
2019-02-16T02:45:44.992Z,6.95
2019-02-16T02:48:14.672Z,7.16
2019-02-16T02:50:44.534Z,7.26
2019-02-16T02:53:14.099Z,7.19
2019-02-16T02:55:43.671Z,7.16
2019-02-16T02:58:13.212Z,6.97
2019-02-16T03:00:43.002Z,7.04
2019-02-16T03:03:12.810Z,7.15
2019-02-16T03:05:42.359Z,7.35
2019-02-16T03:08:11.886Z,7.22
2019-02-16T03:10:41.808Z,7.22
2019-02-16T03:13:11.344Z,6.90
2019-02-16T03:15:41.091Z,6.95
2019-02-16T03:18:10.704Z,7.10
2019-02-16T03:20:59.597Z,7.24
2019-02-16T03:23:31.514Z,7.26
2019-02-16T03:26:08.436Z,7.18
2019-02-16T03:28:57.909Z,7.23
2019-02-16T03:32:06.274Z,7.15
2019-02-16T03:35:00.977Z,7.05
2019-02-16T03:37:52.982Z,6.83
2019-02-16T03:40:22.556Z,6.93
2019-02-16T03:42:52.112Z,6.94
2019-02-16T03:45:21.720Z,7.02
2019-02-16T03:47:51.453Z,7.15
2019-02-16T03:50:20.986Z,7.17
2019-02-16T03:52:50.963Z,7.08
2019-02-16T03:55:20.528Z,7.19
2019-02-16T03:57:50.235Z,7.20
2019-02-16T04:00:19.948Z,7.09
2019-02-16T04:02:49.509Z,7.04
2019-02-16T04:05:19.586Z,6.85
2019-02-16T04:07:49.184Z,6.84
2019-02-16T04:10:19.096Z,6.88
2019-02-16T04:12:48.966Z,6.87
2019-02-16T04:15:18.543Z,6.95
2019-02-16T04:17:48.078Z,6.74
2019-02-16T04:20:17.829Z,6.72
2019-02-16T04:22:47.396Z,6.79
2019-02-16T04:25:16.987Z,6.74
2019-02-16T04:27:46.886Z,6.72
2019-02-16T04:30:16.406Z,6.62
2019-02-16T04:32:46.471Z,6.60
2019-02-16T04:35:16.068Z,6.71
2019-02-16T04:37:45.953Z,6.78
2019-02-16T04:40:15.498Z,6.97
2019-02-16T04:42:45.228Z,6.69
2019-02-16T04:45:14.740Z,6.78
2019-02-16T04:47:44.373Z,6.85
2019-02-16T04:50:14.046Z,6.98
2019-02-16T04:52:43.559Z,7.08
2019-02-16T04:55:13.377Z,7.26
2019-02-16T04:57:42.906Z,7.23
2019-02-16T05:00:12.504Z,7.34
2019-02-16T05:02:42.024Z,7.45
2019-02-16T05:05:11.622Z,7.45
2019-02-16T05:07:41.312Z,7.36
2019-02-16T05:10:11.200Z,7.34
2019-02-16T05:12:40.975Z,7.29
2019-02-16T05:15:11.321Z,7.27
2019-02-16T05:17:42.085Z,7.27
2019-02-16T05:20:11.666Z,7.23
2019-02-16T05:22:44.721Z,7.19
2019-02-16T05:25:12.547Z,7.16
2019-02-16T05:27:42.262Z,7.07
2019-02-16T05:30:11.929Z,6.91
2019-02-16T05:32:41.489Z,7.00
2019-02-16T05:35:11.071Z,7.14
2019-02-16T05:37:40.580Z,7.16
2019-02-16T05:40:11.138Z,7.16
2019-02-16T05:42:40.649Z,6.99
2019-02-16T05:45:10.802Z,6.95
2019-02-16T05:47:40.376Z,6.87
2019-02-16T05:50:09.914Z,6.94
2019-02-16T05:52:40.056Z,7.02
2019-02-16T05:55:09.742Z,6.98
2019-02-16T05:57:39.234Z,6.97
2019-02-16T06:00:11.922Z,6.83
2019-02-16T06:02:41.699Z,6.76
2019-02-16T06:05:11.340Z,6.88
2019-02-16T06:07:41.036Z,6.87
2019-02-16T06:10:10.634Z,6.89
2019-02-16T06:12:40.356Z,6.72
2019-02-16T06:15:10.857Z,6.79
2019-02-16T06:17:40.520Z,6.90
2019-02-16T06:20:10.590Z,6.91
2019-02-16T06:22:40.659Z,6.91
2019-02-16T06:25:10.760Z,6.82
2019-02-16T06:27:43.073Z,6.87
2019-02-16T06:30:12.583Z,6.95
2019-02-16T06:32:42.489Z,6.98
2019-02-16T06:35:13.864Z,7.07
2019-02-16T06:37:43.453Z,7.07
2019-02-16T06:40:13.172Z,7.12
2019-02-16T06:42:42.677Z,7.11
2019-02-16T06:45:12.261Z,7.16
2019-02-16T06:47:41.796Z,7.18
2019-02-16T06:50:11.434Z,7.16
2019-02-16T06:52:41.074Z,7.32
2019-02-16T06:55:10.688Z,7.39
2019-02-16T06:57:41.835Z,7.59
2019-02-16T07:00:12.791Z,7.64
2019-02-16T07:02:42.807Z,7.75
2019-02-16T07:05:12.320Z,7.74
2019-02-16T07:07:41.832Z,7.84
2019-02-16T07:10:11.509Z,8.71
2019-02-16T07:12:41.085Z,9.86
2019-02-16T07:15:10.686Z,10.85
2019-02-16T07:17:40.010Z,11.35
2019-02-16T07:20:10.014Z,12.30
2019-02-16T07:22:39.595Z,12.76
2019-02-16T07:25:09.857Z,13.75
2019-02-16T07:27:39.515Z,14.10
2019-02-16T07:30:11.958Z,14.23
2019-02-16T07:32:42.111Z,14.96
2019-02-16T07:35:11.707Z,14.76
2019-02-16T07:37:41.236Z,15.73
2019-02-16T07:40:12.708Z,16.17
2019-02-16T07:42:52.643Z,17.36
2019-02-16T07:45:28.548Z,17.59
2019-02-16T07:47:59.695Z,18.83
2019-02-16T07:50:30.894Z,19.72
2019-02-16T07:53:02.152Z,20.81
2019-02-16T07:55:33.310Z,21.44
2019-02-16T07:58:19.478Z,21.56
2019-02-16T08:01:02.241Z,21.91
2019-02-16T08:03:33.426Z,22.35
2019-02-16T08:06:04.587Z,22.75
2019-02-16T08:08:35.824Z,23.18
2019-02-16T08:11:18.875Z,23.02
2019-02-16T08:13:52.795Z,23.09
2019-02-16T08:16:24.717Z,24.14
2019-02-16T08:19:05.261Z,24.00
2019-02-16T08:21:37.801Z,23.26
2019-02-16T08:24:24.701Z,24.15
2019-02-16T08:27:12.590Z,24.82
2019-02-16T08:29:53.688Z,24.85
2019-02-16T08:32:31.450Z,24.76
2019-02-16T08:35:08.668Z,23.88
2019-02-16T08:37:39.867Z,24.22
2019-02-16T08:40:20.308Z,25.26
2019-02-16T08:42:51.468Z,26.84
2019-02-16T08:45:34.453Z,27.98
2019-02-16T08:48:08.305Z,28.39
2019-02-16T08:50:39.469Z,29.25
2019-02-16T08:53:13.310Z,29.33
2019-02-16T08:55:47.529Z,30.00
2019-02-16T08:58:19.111Z,29.49
2019-02-16T09:00:52.985Z,28.87
2019-02-16T09:03:27.283Z,29.57
2019-02-16T09:06:00.524Z,29.61
2019-02-16T09:08:35.938Z,29.88
2019-02-16T09:11:08.216Z,30.59
2019-02-16T09:13:51.361Z,30.27
2019-02-16T09:16:31.518Z,29.64
2019-02-16T09:19:05.739Z,28.21
2019-02-16T09:21:49.979Z,27.68
2019-02-16T09:24:21.140Z,27.72
2019-02-16T09:27:05.644Z,29.63
2019-02-16T09:29:45.781Z,27.50
2019-02-16T09:32:19.796Z,29.47
2019-02-16T09:34:50.936Z,27.53
2019-02-16T09:37:39.238Z,26.02
2019-02-16T09:40:10.528Z,26.64
2019-02-16T09:42:42.566Z,26.24
2019-02-16T09:45:29.787Z,25.40
2019-02-16T09:48:06.753Z,24.69
2019-02-16T09:50:52.786Z,24.91
2019-02-16T09:53:26.999Z,27.46
2019-02-16T09:55:58.632Z,29.61
2019-02-16T09:58:44.551Z,27.69
2019-02-16T10:01:15.744Z,27.98
2019-02-16T10:03:55.993Z,29.52
2019-02-16T10:06:27.239Z,30.03
2019-02-16T10:09:01.100Z,29.03
2019-02-16T10:11:32.260Z,28.65
2019-02-16T10:14:08.992Z,26.89
2019-02-16T10:16:55.940Z,27.27
2019-02-16T10:19:29.975Z,27.42
2019-02-16T10:22:01.285Z,28.94
2019-02-16T10:24:35.177Z,26.54
2019-02-16T10:27:21.038Z,25.76
2019-02-16T10:29:52.452Z,25.95
2019-02-16T10:32:24.493Z,26.66
2019-02-16T10:35:05.020Z,27.10
2019-02-16T10:37:42.044Z,26.89
2019-02-16T10:40:29.158Z,28.10
2019-02-16T10:43:01.122Z,30.05
2019-02-16T10:45:50.906Z,30.26
2019-02-16T10:48:24.691Z,31.14
2019-02-16T10:51:01.814Z,31.69
2019-02-16T10:53:38.606Z,31.23
2019-02-16T10:56:12.764Z,30.01
2019-02-16T10:58:56.882Z,31.83
2019-02-16T11:01:28.553Z,31.13
2019-02-16T11:03:59.746Z,29.44
2019-02-16T11:06:37.177Z,27.81
2019-02-16T11:09:10.059Z,28.84
2019-02-16T11:11:41.218Z,29.95
2019-02-16T11:14:30.394Z,29.50
2019-02-16T11:17:07.352Z,28.49
2019-02-16T11:19:44.193Z,30.40
2019-02-16T11:22:17.983Z,29.36
2019-02-16T11:24:49.128Z,30.48
2019-02-16T11:27:23.146Z,28.84
2019-02-16T11:29:54.353Z,29.23
2019-02-16T11:32:41.198Z,27.33
2019-02-16T11:35:12.496Z,28.95
2019-02-16T11:37:52.752Z,30.24
2019-02-16T11:40:29.636Z,30.50
2019-02-16T11:43:10.003Z,31.54
2019-02-16T11:45:47.113Z,31.64
2019-02-16T11:48:34.343Z,31.91
2019-02-16T11:51:03.614Z,32.44
2019-02-16T11:53:34.771Z,32.39
2019-02-16T11:56:10.046Z,34.21
2019-02-16T11:58:41.202Z,35.58
2019-02-16T12:01:15.080Z,36.54
2019-02-16T12:03:55.519Z,36.73
2019-02-16T12:06:29.451Z,35.68
2019-02-16T12:09:16.431Z,35.23
2019-02-16T12:11:50.549Z,35.35
2019-02-16T12:14:39.297Z,34.61
2019-02-16T12:17:13.183Z,34.71
2019-02-16T12:19:47.295Z,34.50
2019-02-16T12:22:21.180Z,33.53
2019-02-16T12:25:04.982Z,33.32
2019-02-16T12:27:44.114Z,31.48
2019-02-16T12:30:32.843Z,32.83
2019-02-16T12:33:11.334Z,33.18
2019-02-16T12:35:43.580Z,33.48
2019-02-16T12:38:31.016Z,33.08
2019-02-16T12:41:14.683Z,33.76
2019-02-16T12:43:45.818Z,34.94
2019-02-16T12:46:16.988Z,34.12
2019-02-16T12:49:06.379Z,33.47
2019-02-16T12:51:46.053Z,32.52
2019-02-16T12:54:20.237Z,34.29
2019-02-16T12:56:53.952Z,32.74
2019-02-16T12:59:43.105Z,32.97
2019-02-16T13:02:18.262Z,33.12
2019-02-16T13:04:56.842Z,33.55
2019-02-16T13:07:28.013Z,33.81
2019-02-16T13:09:59.176Z,34.36
2019-02-16T13:12:46.592Z,35.32
2019-02-16T13:15:33.901Z,35.50
2019-02-16T13:18:14.046Z,35.31
2019-02-16T13:21:00.209Z,34.92
2019-02-16T13:23:49.485Z,32.08
2019-02-16T13:26:26.935Z,31.75
2019-02-16T13:28:58.160Z,31.48
2019-02-16T13:31:30.213Z,31.38
2019-02-16T13:34:17.821Z,31.24
2019-02-16T13:36:52.493Z,30.51
2019-02-16T13:39:24.941Z,29.40
2019-02-16T13:41:58.890Z,29.74
2019-02-16T13:44:32.616Z,30.63
2019-02-16T13:47:09.499Z,30.70
2019-02-16T13:49:40.721Z,30.52
2019-02-16T13:52:14.587Z,30.85
2019-02-16T13:54:53.932Z,30.96
2019-02-16T13:57:30.672Z,29.44
2019-02-16T14:00:07.741Z,30.02
2019-02-16T14:02:41.875Z,30.35
2019-02-16T14:05:25.162Z,30.75
2019-02-16T14:08:09.437Z,31.14
2019-02-16T14:10:46.947Z,30.45
2019-02-16T14:13:21.009Z,30.20
2019-02-16T14:15:55.033Z,30.65
2019-02-16T14:18:24.573Z,29.82
2019-02-16T14:20:54.085Z,30.06
2019-02-16T14:23:23.627Z,29.02
2019-02-16T14:25:53.195Z,28.57
2019-02-16T14:28:23.308Z,26.61
2019-02-16T14:30:53.066Z,25.48
2019-02-16T14:33:22.653Z,25.02
2019-02-16T14:35:52.275Z,24.79
2019-02-16T14:38:23.455Z,24.56
2019-02-16T14:40:53.041Z,24.87
2019-02-16T14:43:22.581Z,25.35
2019-02-16T14:45:52.109Z,26.15
2019-02-16T14:48:21.642Z,26.95
2019-02-16T14:50:51.145Z,27.25
2019-02-16T14:53:21.039Z,26.74
2019-02-16T14:55:54.134Z,26.62
2019-02-16T14:58:21.788Z,25.41
2019-02-16T15:00:51.329Z,24.91
2019-02-16T15:03:20.878Z,25.19
2019-02-16T15:05:50.384Z,25.04
2019-02-16T15:08:19.935Z,24.80
2019-02-16T15:10:49.432Z,25.04
2019-02-16T15:13:18.953Z,25.31
2019-02-16T15:15:48.692Z,25.34
2019-02-16T15:18:18.219Z,24.94
2019-02-16T15:20:48.563Z,24.69
2019-02-16T15:23:18.097Z,24.07
2019-02-16T15:25:47.720Z,23.59
2019-02-16T15:28:17.246Z,23.20
2019-02-16T15:30:46.782Z,23.00
2019-02-16T15:33:16.384Z,22.34
2019-02-16T15:35:47.639Z,22.14
2019-02-16T15:38:17.780Z,22.18
2019-02-16T15:40:47.366Z,21.77
2019-02-16T15:43:16.941Z,21.61
2019-02-16T15:45:46.580Z,21.27
2019-02-16T15:48:16.160Z,21.13
2019-02-16T15:50:45.683Z,20.77
2019-02-16T15:53:15.318Z,20.56
2019-02-16T15:55:45.203Z,20.50
2019-02-16T15:58:14.729Z,19.98
2019-02-16T16:00:44.453Z,19.90
2019-02-16T16:03:14.019Z,19.72
2019-02-16T16:05:43.552Z,19.23
2019-02-16T16:08:15.160Z,18.94
2019-02-16T16:10:49.026Z,18.85
2019-02-16T16:13:20.915Z,18.68
2019-02-16T16:15:52.208Z,18.42
2019-02-16T16:18:39.742Z,18.02
2019-02-16T16:21:13.665Z,17.97
2019-02-16T16:24:01.050Z,17.80
2019-02-16T16:26:48.619Z,17.65
2019-02-16T16:29:20.041Z,17.43
2019-02-16T16:32:06.581Z,16.86
2019-02-16T16:34:42.492Z,16.94
2019-02-16T16:37:13.777Z,16.46
2019-02-16T16:39:47.384Z,16.47
2019-02-16T16:42:25.061Z,16.36
2019-02-16T16:44:59.088Z,16.32
2019-02-16T16:47:30.327Z,15.94
2019-02-16T16:50:18.987Z,16.07
2019-02-16T16:52:51.204Z,15.94
2019-02-16T16:55:22.922Z,15.98
2019-02-16T16:57:54.501Z,16.04
2019-02-16T17:00:41.702Z,16.05
2019-02-16T17:03:16.893Z,16.09
2019-02-16T17:05:48.341Z,15.88
2019-02-16T17:08:28.561Z,15.94
2019-02-16T17:11:00.078Z,15.94
2019-02-16T17:13:40.120Z,15.86
2019-02-16T17:16:14.069Z,15.76
2019-02-16T17:18:47.963Z,15.72
2019-02-16T17:21:20.396Z,15.53
2019-02-16T17:24:04.187Z,15.44
2019-02-16T17:26:38.989Z,15.46
2019-02-16T17:29:10.224Z,15.32
2019-02-16T17:31:44.388Z,15.33
2019-02-16T17:34:13.708Z,15.37
2019-02-16T17:36:44.881Z,15.24
2019-02-16T17:39:16.742Z,15.22
2019-02-16T17:41:57.101Z,15.21
2019-02-16T17:44:37.006Z,15.13
2019-02-16T17:47:14.002Z,15.06
2019-02-16T17:49:56.775Z,14.95
2019-02-16T17:52:30.781Z,14.88
2019-02-16T17:55:07.635Z,14.76
2019-02-16T17:57:41.688Z,14.69
2019-02-16T18:00:29.456Z,14.60
2019-02-16T18:02:58.808Z,14.69
2019-02-16T18:05:45.999Z,14.71
2019-02-16T18:08:23.305Z,14.50
2019-02-16T18:10:57.068Z,14.34
2019-02-16T18:13:38.641Z,14.24
2019-02-16T18:16:09.814Z,14.19
2019-02-16T18:18:40.975Z,14.18
2019-02-16T18:21:12.167Z,13.94
2019-02-16T18:23:49.266Z,13.74
2019-02-16T18:26:23.486Z,13.55
2019-02-16T18:29:02.000Z,13.44
2019-02-16T18:31:32.514Z,13.29
2019-02-16T18:34:03.713Z,13.27
2019-02-16T18:36:47.028Z,13.04
2019-02-16T18:39:20.986Z,13.08
2019-02-16T18:41:58.190Z,13.00
2019-02-16T18:44:27.492Z,12.86
2019-02-16T18:47:11.060Z,12.70
2019-02-16T18:50:00.348Z,12.59
2019-02-16T18:52:40.523Z,12.56
2019-02-16T18:55:20.980Z,12.51
2019-02-16T18:58:08.359Z,12.32
2019-02-16T19:00:45.041Z,12.11
2019-02-16T19:03:25.843Z,11.93
2019-02-16T19:05:57.103Z,11.95
2019-02-16T19:08:33.795Z,12.03
2019-02-16T19:11:14.991Z,12.04
2019-02-16T19:14:01.319Z,11.81
2019-02-16T19:16:48.700Z,11.65
2019-02-16T19:19:21.879Z,11.75
2019-02-16T19:22:09.290Z,11.74
2019-02-16T19:24:47.367Z,11.66
2019-02-16T19:27:18.544Z,11.56
2019-02-16T19:30:04.520Z,11.62
2019-02-16T19:32:42.760Z,11.62
2019-02-16T19:35:26.588Z,11.71
2019-02-16T19:37:57.901Z,11.60
2019-02-16T19:40:34.845Z,11.69
2019-02-16T19:43:09.054Z,11.80
2019-02-16T19:45:46.083Z,11.86
2019-02-16T19:48:23.006Z,12.01
2019-02-16T19:51:11.233Z,12.03
2019-02-16T19:53:42.452Z,12.03
2019-02-16T19:56:11.838Z,11.81
2019-02-16T19:58:49.761Z,11.85
2019-02-16T20:01:21.008Z,11.92
2019-02-16T20:03:58.316Z,12.04
2019-02-16T20:06:31.935Z,11.83
2019-02-16T20:09:05.876Z,12.00
2019-02-16T20:11:42.837Z,12.04
2019-02-16T20:14:23.911Z,11.90
2019-02-16T20:17:00.939Z,11.92
2019-02-16T20:19:30.266Z,11.93
2019-02-16T20:22:10.520Z,12.01
2019-02-16T20:24:46.341Z,11.97
2019-02-16T20:27:17.503Z,11.90
2019-02-16T20:30:09.694Z,11.88
2019-02-16T20:32:53.040Z,11.96
2019-02-16T20:35:36.262Z,11.74
2019-02-16T20:38:26.788Z,11.83
2019-02-16T20:41:05.632Z,11.79
2019-02-16T20:43:52.714Z,11.90
2019-02-16T20:46:26.346Z,11.88
2019-02-16T20:48:58.816Z,11.65
2019-02-16T20:51:28.259Z,11.76
2019-02-16T20:54:00.298Z,11.61
2019-02-16T20:56:31.464Z,11.47
2019-02-16T20:59:15.706Z,11.54
2019-02-16T21:01:55.726Z,11.39
2019-02-16T21:04:34.931Z,11.42
2019-02-16T21:07:08.864Z,11.58
2019-02-16T21:09:56.303Z,11.47
2019-02-16T21:12:37.203Z,11.48
2019-02-16T21:15:20.374Z,11.29
2019-02-16T21:17:51.604Z,11.39
2019-02-16T21:20:28.273Z,11.36
2019-02-16T21:23:14.335Z,11.17
2019-02-16T21:25:48.306Z,11.03
2019-02-16T21:28:24.296Z,10.80
2019-02-16T21:30:55.297Z,10.60
2019-02-16T21:33:29.130Z,10.55
2019-02-16T21:36:01.144Z,10.45
2019-02-16T21:38:34.960Z,10.50
2019-02-16T21:41:08.628Z,10.73
2019-02-16T21:43:51.460Z,10.50
2019-02-16T21:46:22.982Z,10.20
2019-02-16T21:48:57.140Z,10.09
2019-02-16T21:51:31.473Z,10.02
2019-02-16T21:54:05.425Z,10.02
2019-02-16T21:56:51.885Z,9.97
2019-02-16T21:59:21.194Z,10.00
2019-02-16T22:02:07.312Z,9.94
2019-02-16T22:04:47.506Z,9.87
2019-02-16T22:07:19.125Z,9.94
2019-02-16T22:09:53.040Z,9.96
2019-02-16T22:12:40.492Z,9.97
2019-02-16T22:15:10.736Z,9.97
2019-02-16T22:17:40.281Z,9.89
2019-02-16T22:20:10.943Z,9.74
2019-02-16T22:22:40.454Z,9.49
2019-02-16T22:25:10.325Z,9.51
2019-02-16T22:27:40.068Z,9.47
2019-02-16T22:30:11.813Z,9.56
2019-02-16T22:32:41.375Z,9.39
2019-02-16T22:35:11.366Z,9.27
2019-02-16T22:37:40.959Z,9.25
2019-02-16T22:40:10.794Z,9.22
2019-02-16T22:42:40.599Z,9.08
2019-02-16T22:45:12.566Z,9.10
2019-02-16T22:47:42.271Z,9.27
2019-02-16T22:50:12.304Z,9.43
2019-02-16T22:52:41.852Z,9.23
2019-02-16T22:55:11.439Z,9.14
2019-02-16T22:57:40.986Z,9.00
2019-02-16T23:00:16.866Z,8.97
2019-02-16T23:02:47.081Z,9.04
2019-02-16T23:05:16.746Z,9.07
2019-02-16T23:07:46.435Z,9.04
2019-02-16T23:10:16.105Z,9.02
2019-02-16T23:12:45.713Z,9.17
2019-02-16T23:15:15.905Z,9.18
2019-02-16T23:17:48.490Z,9.23
2019-02-16T23:20:18.160Z,9.13
2019-02-16T23:22:47.733Z,9.05
2019-02-16T23:25:17.332Z,9.12
2019-02-16T23:27:46.879Z,9.03
2019-02-16T23:30:16.440Z,9.14
2019-02-16T23:32:46.134Z,9.17
2019-02-16T23:35:15.738Z,9.06
2019-02-16T23:37:45.817Z,8.95
2019-02-16T23:40:15.624Z,9.04
2019-02-16T23:42:45.484Z,9.05
2019-02-16T23:45:15.138Z,9.02
2019-02-16T23:47:44.760Z,9.14
2019-02-16T23:50:14.362Z,9.03
2019-02-16T23:52:44.009Z,9.04
2019-02-16T23:55:13.907Z,8.84
2019-02-16T23:57:43.417Z,8.93
